sensor_id;sensor_type;location;lat;lon;timestamp;temperature;humidity
13462;DHT22;6803;45.264;5.468;2022-12-07T00:02:20;2.00;99.90
13462;DHT22;6803;45.264;5.468;2022-12-07T00:04:52;2.00;99.90
13462;DHT22;6803;45.264;5.468;2022-12-07T00:07:23;2.00;99.90
13462;DHT22;6803;45.264;5.468;2022-12-07T00:09:55;1.90;99.90
13462;DHT22;6803;45.264;5.468;2022-12-07T00:12:26;1.90;99.90
13462;DHT22;6803;45.264;5.468;2022-12-07T00:14:57;1.90;99.90
13462;DHT22;6803;45.264;5.468;2022-12-07T00:17:27;1.90;99.90
13462;DHT22;6803;45.264;5.468;2022-12-07T00:19:58;2.00;99.90
13462;DHT22;6803;45.264;5.468;2022-12-07T00:22:29;2.00;99.90
13462;DHT22;6803;45.264;5.468;2022-12-07T00:25:00;2.00;99.90
13462;DHT22;6803;45.264;5.468;2022-12-07T00:27:31;2.00;99.90
13462;DHT22;6803;45.264;5.468;2022-12-07T00:30:02;2.00;99.90
13462;DHT22;6803;45.264;5.468;2022-12-07T00:32:33;2.00;99.90
13462;DHT22;6803;45.264;5.468;2022-12-07T00:35:05;2.00;99.90
13462;DHT22;6803;45.264;5.468;2022-12-07T00:37:35;2.10;99.90
13462;DHT22;6803;45.264;5.468;2022-12-07T00:40:08;2.10;99.90
13462;DHT22;6803;45.264;5.468;2022-12-07T00:42:39;2.10;99.90
13462;DHT22;6803;45.264;5.468;2022-12-07T00:45:11;2.10;99.90
13462;DHT22;6803;45.264;5.468;2022-12-07T00:47:41;2.10;99.90
13462;DHT22;6803;45.264;5.468;2022-12-07T00:50:12;2.10;99.90
13462;DHT22;6803;45.264;5.468;2022-12-07T00:52:43;2.00;99.90
13462;DHT22;6803;45.264;5.468;2022-12-07T00:55:13;2.00;99.90
13462;DHT22;6803;45.264;5.468;2022-12-07T00:57:44;2.10;99.90
13462;DHT22;6803;45.264;5.468;2022-12-07T01:00:16;2.10;99.90
13462;DHT22;6803;45.264;5.468;2022-12-07T01:02:47;2.10;99.90
13462;DHT22;6803;45.264;5.468;2022-12-07T01:05:17;2.10;99.90
13462;DHT22;6803;45.264;5.468;2022-12-07T01:07:48;2.10;99.90
13462;DHT22;6803;45.264;5.468;2022-12-07T01:10:19;2.10;99.90
13462;DHT22;6803;45.264;5.468;2022-12-07T01:12:50;2.10;99.90
13462;DHT22;6803;45.264;5.468;2022-12-07T01:15:21;2.10;99.90
13462;DHT22;6803;45.264;5.468;2022-12-07T01:17:51;2.10;99.90
13462;DHT22;6803;45.264;5.468;2022-12-07T01:20:23;2.10;99.90
13462;DHT22;6803;45.264;5.468;2022-12-07T01:22:54;2.10;99.90
13462;DHT22;6803;45.264;5.468;2022-12-07T01:25:25;2.10;99.90
13462;DHT22;6803;45.264;5.468;2022-12-07T01:27:55;2.10;99.90
13462;DHT22;6803;45.264;5.468;2022-12-07T01:30:26;2.20;99.90
13462;DHT22;6803;45.264;5.468;2022-12-07T01:32:57;2.10;99.90
13462;DHT22;6803;45.264;5.468;2022-12-07T01:35:27;2.20;99.90
13462;DHT22;6803;45.264;5.468;2022-12-07T01:37:58;2.20;99.90
13462;DHT22;6803;45.264;5.468;2022-12-07T01:40:29;2.20;99.90
13462;DHT22;6803;45.264;5.468;2022-12-07T01:42:59;2.10;99.90
13462;DHT22;6803;45.264;5.468;2022-12-07T01:45:41;2.10;99.90
13462;DHT22;6803;45.264;5.468;2022-12-07T01:48:14;2.20;99.90
13462;DHT22;6803;45.264;5.468;2022-12-07T01:50:48;2.10;99.90
13462;DHT22;6803;45.264;5.468;2022-12-07T01:53:19;2.10;99.90
13462;DHT22;6803;45.264;5.468;2022-12-07T01:55:53;2.10;99.90
13462;DHT22;6803;45.264;5.468;2022-12-07T01:58:25;2.20;99.90
13462;DHT22;6803;45.264;5.468;2022-12-07T02:00:55;2.10;99.90
13462;DHT22;6803;45.264;5.468;2022-12-07T02:03:29;2.10;99.90
13462;DHT22;6803;45.264;5.468;2022-12-07T02:06:01;2.10;99.90
13462;DHT22;6803;45.264;5.468;2022-12-07T02:08:32;2.10;99.90
13462;DHT22;6803;45.264;5.468;2022-12-07T02:11:03;2.10;99.90
13462;DHT22;6803;45.264;5.468;2022-12-07T02:13:37;2.10;99.90
13462;DHT22;6803;45.264;5.468;2022-12-07T02:16:17;2.10;99.90
13462;DHT22;6803;45.264;5.468;2022-12-07T02:18:57;2.10;99.90
13462;DHT22;6803;45.264;5.468;2022-12-07T02:21:35;2.20;99.90
13462;DHT22;6803;45.264;5.468;2022-12-07T02:24:28;2.10;99.90
13462;DHT22;6803;45.264;5.468;2022-12-07T02:27:22;2.10;99.90
13462;DHT22;6803;45.264;5.468;2022-12-07T02:32:57;2.10;99.90
13462;DHT22;6803;45.264;5.468;2022-12-07T02:35:32;2.10;99.90
13462;DHT22;6803;45.264;5.468;2022-12-07T02:38:08;2.20;99.90
13462;DHT22;6803;45.264;5.468;2022-12-07T02:43:21;2.20;99.90
13462;DHT22;6803;45.264;5.468;2022-12-07T02:45:53;2.10;99.90
13462;DHT22;6803;45.264;5.468;2022-12-07T02:48:26;2.10;99.90
13462;DHT22;6803;45.264;5.468;2022-12-07T02:50:57;2.00;99.90
13462;DHT22;6803;45.264;5.468;2022-12-07T02:53:32;2.10;99.90
13462;DHT22;6803;45.264;5.468;2022-12-07T02:58:50;2.10;99.90
13462;DHT22;6803;45.264;5.468;2022-12-07T03:01:27;2.10;99.90
13462;DHT22;6803;45.264;5.468;2022-12-07T03:04:02;2.10;99.90
13462;DHT22;6803;45.264;5.468;2022-12-07T03:06:36;2.10;99.90
13462;DHT22;6803;45.264;5.468;2022-12-07T03:09:11;2.10;99.90
13462;DHT22;6803;45.264;5.468;2022-12-07T03:11:44;2.10;99.90
13462;DHT22;6803;45.264;5.468;2022-12-07T03:14:17;2.20;99.90
13462;DHT22;6803;45.264;5.468;2022-12-07T03:16:52;2.20;99.90
13462;DHT22;6803;45.264;5.468;2022-12-07T03:19:24;2.20;99.90
13462;DHT22;6803;45.264;5.468;2022-12-07T03:24:41;2.00;99.90
13462;DHT22;6803;45.264;5.468;2022-12-07T03:27:14;2.00;99.90
13462;DHT22;6803;45.264;5.468;2022-12-07T03:29:49;2.10;99.90
13462;DHT22;6803;45.264;5.468;2022-12-07T03:32:23;2.10;99.90
13462;DHT22;6803;45.264;5.468;2022-12-07T03:34:56;2.10;99.90
13462;DHT22;6803;45.264;5.468;2022-12-07T03:37:31;2.10;99.90
13462;DHT22;6803;45.264;5.468;2022-12-07T03:40:06;2.20;99.90
13462;DHT22;6803;45.264;5.468;2022-12-07T03:42:37;2.10;99.90
13462;DHT22;6803;45.264;5.468;2022-12-07T03:45:09;2.10;99.90
13462;DHT22;6803;45.264;5.468;2022-12-07T03:47:45;2.10;99.90
13462;DHT22;6803;45.264;5.468;2022-12-07T03:50:19;2.10;99.90
13462;DHT22;6803;45.264;5.468;2022-12-07T03:52:53;2.20;99.90
13462;DHT22;6803;45.264;5.468;2022-12-07T03:55:28;2.10;99.90
13462;DHT22;6803;45.264;5.468;2022-12-07T03:58:02;2.10;99.90
13462;DHT22;6803;45.264;5.468;2022-12-07T04:00:34;2.10;99.90
13462;DHT22;6803;45.264;5.468;2022-12-07T04:03:05;2.10;99.90
13462;DHT22;6803;45.264;5.468;2022-12-07T04:05:36;2.10;99.90
13462;DHT22;6803;45.264;5.468;2022-12-07T04:08:07;2.10;99.90
13462;DHT22;6803;45.264;5.468;2022-12-07T04:10:38;2.10;99.90
13462;DHT22;6803;45.264;5.468;2022-12-07T04:13:09;2.10;99.90
13462;DHT22;6803;45.264;5.468;2022-12-07T04:15:39;2.10;99.90
13462;DHT22;6803;45.264;5.468;2022-12-07T04:18:10;2.10;99.90
13462;DHT22;6803;45.264;5.468;2022-12-07T04:20:41;2.20;99.90
13462;DHT22;6803;45.264;5.468;2022-12-07T04:23:12;2.20;99.90
13462;DHT22;6803;45.264;5.468;2022-12-07T04:25:42;2.20;99.90
13462;DHT22;6803;45.264;5.468;2022-12-07T04:28:13;2.20;99.90
13462;DHT22;6803;45.264;5.468;2022-12-07T04:30:44;2.20;99.90
13462;DHT22;6803;45.264;5.468;2022-12-07T04:33:16;2.20;99.90
13462;DHT22;6803;45.264;5.468;2022-12-07T04:35:47;2.20;99.90
13462;DHT22;6803;45.264;5.468;2022-12-07T04:38:18;2.20;99.90
13462;DHT22;6803;45.264;5.468;2022-12-07T04:40:48;2.20;99.90
13462;DHT22;6803;45.264;5.468;2022-12-07T04:43:19;2.20;99.90
13462;DHT22;6803;45.264;5.468;2022-12-07T04:45:50;2.20;99.90
13462;DHT22;6803;45.264;5.468;2022-12-07T04:48:21;2.10;99.90
13462;DHT22;6803;45.264;5.468;2022-12-07T04:50:52;2.10;99.90
13462;DHT22;6803;45.264;5.468;2022-12-07T04:53:22;2.20;99.90
13462;DHT22;6803;45.264;5.468;2022-12-07T04:55:53;2.20;99.90
13462;DHT22;6803;45.264;5.468;2022-12-07T04:58:24;2.20;99.90
13462;DHT22;6803;45.264;5.468;2022-12-07T05:00:55;2.10;99.90
13462;DHT22;6803;45.264;5.468;2022-12-07T05:03:26;2.10;99.90
13462;DHT22;6803;45.264;5.468;2022-12-07T05:05:57;2.10;99.90
13462;DHT22;6803;45.264;5.468;2022-12-07T05:08:27;2.20;99.90
13462;DHT22;6803;45.264;5.468;2022-12-07T05:10:58;2.20;99.90
13462;DHT22;6803;45.264;5.468;2022-12-07T05:13:29;2.20;99.90
13462;DHT22;6803;45.264;5.468;2022-12-07T05:16:00;2.20;99.90
13462;DHT22;6803;45.264;5.468;2022-12-07T05:18:31;2.20;99.90
13462;DHT22;6803;45.264;5.468;2022-12-07T05:23:40;2.20;99.90
13462;DHT22;6803;45.264;5.468;2022-12-07T05:26:11;2.30;99.90
13462;DHT22;6803;45.264;5.468;2022-12-07T05:28:41;2.30;99.90
13462;DHT22;6803;45.264;5.468;2022-12-07T05:31:12;2.20;99.90
13462;DHT22;6803;45.264;5.468;2022-12-07T05:33:43;2.20;99.90
13462;DHT22;6803;45.264;5.468;2022-12-07T05:36:14;2.30;99.90
13462;DHT22;6803;45.264;5.468;2022-12-07T05:38:45;2.30;99.90
13462;DHT22;6803;45.264;5.468;2022-12-07T05:41:17;2.30;99.90
13462;DHT22;6803;45.264;5.468;2022-12-07T05:44:06;2.30;99.90
13462;DHT22;6803;45.264;5.468;2022-12-07T05:46:37;2.20;99.90
13462;DHT22;6803;45.264;5.468;2022-12-07T05:49:08;2.20;99.90
13462;DHT22;6803;45.264;5.468;2022-12-07T05:51:39;2.20;99.90
13462;DHT22;6803;45.264;5.468;2022-12-07T05:54:09;2.20;99.90
13462;DHT22;6803;45.264;5.468;2022-12-07T05:56:40;2.30;99.90
13462;DHT22;6803;45.264;5.468;2022-12-07T05:59:11;2.30;99.90
13462;DHT22;6803;45.264;5.468;2022-12-07T06:01:56;2.30;99.90
13462;DHT22;6803;45.264;5.468;2022-12-07T06:04:29;2.30;99.90
13462;DHT22;6803;45.264;5.468;2022-12-07T06:07:00;2.30;99.90
13462;DHT22;6803;45.264;5.468;2022-12-07T06:09:32;2.30;99.90
13462;DHT22;6803;45.264;5.468;2022-12-07T06:12:04;2.30;99.90
13462;DHT22;6803;45.264;5.468;2022-12-07T06:14:54;2.30;99.90
13462;DHT22;6803;45.264;5.468;2022-12-07T06:17:25;2.30;99.90
13462;DHT22;6803;45.264;5.468;2022-12-07T06:19:56;2.30;99.90
13462;DHT22;6803;45.264;5.468;2022-12-07T06:22:27;2.30;99.90
13462;DHT22;6803;45.264;5.468;2022-12-07T06:24:58;2.20;99.90
13462;DHT22;6803;45.264;5.468;2022-12-07T06:27:32;2.20;99.90
13462;DHT22;6803;45.264;5.468;2022-12-07T06:30:05;2.30;99.90
13462;DHT22;6803;45.264;5.468;2022-12-07T06:32:38;2.30;99.90
13462;DHT22;6803;45.264;5.468;2022-12-07T06:35:09;2.30;99.90
13462;DHT22;6803;45.264;5.468;2022-12-07T06:37:40;2.30;99.90
13462;DHT22;6803;45.264;5.468;2022-12-07T06:40:12;2.30;99.90
13462;DHT22;6803;45.264;5.468;2022-12-07T06:42:43;2.30;99.90
13462;DHT22;6803;45.264;5.468;2022-12-07T06:45:14;2.20;99.90
13462;DHT22;6803;45.264;5.468;2022-12-07T06:47:44;2.20;99.90
13462;DHT22;6803;45.264;5.468;2022-12-07T06:50:16;2.30;99.90
13462;DHT22;6803;45.264;5.468;2022-12-07T06:52:46;2.20;99.90
13462;DHT22;6803;45.264;5.468;2022-12-07T06:55:17;2.30;99.90
13462;DHT22;6803;45.264;5.468;2022-12-07T06:57:48;2.30;99.90
13462;DHT22;6803;45.264;5.468;2022-12-07T07:00:20;2.20;99.90
13462;DHT22;6803;45.264;5.468;2022-12-07T07:02:51;2.30;99.90
13462;DHT22;6803;45.264;5.468;2022-12-07T07:05:22;2.30;99.90
13462;DHT22;6803;45.264;5.468;2022-12-07T07:07:53;2.20;99.90
13462;DHT22;6803;45.264;5.468;2022-12-07T07:10:25;2.30;99.90
13462;DHT22;6803;45.264;5.468;2022-12-07T07:12:57;2.30;99.90
13462;DHT22;6803;45.264;5.468;2022-12-07T07:15:27;2.30;99.90
13462;DHT22;6803;45.264;5.468;2022-12-07T07:17:58;2.30;99.90
13462;DHT22;6803;45.264;5.468;2022-12-07T07:20:31;2.20;99.90
13462;DHT22;6803;45.264;5.468;2022-12-07T07:23:02;2.20;99.90
13462;DHT22;6803;45.264;5.468;2022-12-07T07:25:33;2.20;99.90
13462;DHT22;6803;45.264;5.468;2022-12-07T07:28:04;2.30;99.90
13462;DHT22;6803;45.264;5.468;2022-12-07T07:30:35;2.30;99.90
13462;DHT22;6803;45.264;5.468;2022-12-07T07:33:06;2.20;99.90
13462;DHT22;6803;45.264;5.468;2022-12-07T07:35:37;2.20;99.90
13462;DHT22;6803;45.264;5.468;2022-12-07T07:38:08;2.20;99.90
13462;DHT22;6803;45.264;5.468;2022-12-07T07:40:39;2.30;99.90
13462;DHT22;6803;45.264;5.468;2022-12-07T07:43:10;2.30;99.90
13462;DHT22;6803;45.264;5.468;2022-12-07T07:45:41;2.30;99.90
13462;DHT22;6803;45.264;5.468;2022-12-07T07:48:11;2.30;99.90
13462;DHT22;6803;45.264;5.468;2022-12-07T07:50:42;2.40;99.90
13462;DHT22;6803;45.264;5.468;2022-12-07T07:53:13;2.50;99.90
13462;DHT22;6803;45.264;5.468;2022-12-07T07:55:50;2.40;99.90
13462;DHT22;6803;45.264;5.468;2022-12-07T07:58:22;2.40;99.90
13462;DHT22;6803;45.264;5.468;2022-12-07T08:00:53;2.40;99.90
13462;DHT22;6803;45.264;5.468;2022-12-07T08:03:24;2.50;99.90
13462;DHT22;6803;45.264;5.468;2022-12-07T08:05:55;2.50;99.90
13462;DHT22;6803;45.264;5.468;2022-12-07T08:08:25;2.60;99.90
13462;DHT22;6803;45.264;5.468;2022-12-07T08:10:56;2.60;99.90
13462;DHT22;6803;45.264;5.468;2022-12-07T08:13:28;2.40;99.90
13462;DHT22;6803;45.264;5.468;2022-12-07T08:16:04;2.50;99.90
13462;DHT22;6803;45.264;5.468;2022-12-07T08:18:37;2.50;99.90
13462;DHT22;6803;45.264;5.468;2022-12-07T08:21:10;2.60;99.90
13462;DHT22;6803;45.264;5.468;2022-12-07T08:23:42;2.60;99.90
13462;DHT22;6803;45.264;5.468;2022-12-07T08:26:15;2.60;99.90
13462;DHT22;6803;45.264;5.468;2022-12-07T08:28:46;2.50;99.90
13462;DHT22;6803;45.264;5.468;2022-12-07T08:31:18;2.60;99.90
13462;DHT22;6803;45.264;5.468;2022-12-07T08:33:49;2.70;99.90
13462;DHT22;6803;45.264;5.468;2022-12-07T08:36:20;2.70;99.90
13462;DHT22;6803;45.264;5.468;2022-12-07T08:38:52;2.80;99.90
13462;DHT22;6803;45.264;5.468;2022-12-07T08:41:24;2.70;99.90
13462;DHT22;6803;45.264;5.468;2022-12-07T08:43:55;2.70;99.90
13462;DHT22;6803;45.264;5.468;2022-12-07T08:46:28;2.80;99.90
13462;DHT22;6803;45.264;5.468;2022-12-07T08:49:03;2.80;99.90
13462;DHT22;6803;45.264;5.468;2022-12-07T08:51:35;2.80;99.90
13462;DHT22;6803;45.264;5.468;2022-12-07T08:54:08;2.80;99.90
13462;DHT22;6803;45.264;5.468;2022-12-07T08:56:40;2.80;99.90
13462;DHT22;6803;45.264;5.468;2022-12-07T08:59:12;2.60;99.90
13462;DHT22;6803;45.264;5.468;2022-12-07T09:01:44;2.80;99.90
13462;DHT22;6803;45.264;5.468;2022-12-07T09:04:15;2.80;99.90
13462;DHT22;6803;45.264;5.468;2022-12-07T09:06:45;2.80;99.90
13462;DHT22;6803;45.264;5.468;2022-12-07T09:09:17;2.80;99.90
13462;DHT22;6803;45.264;5.468;2022-12-07T09:11:47;2.70;99.90
13462;DHT22;6803;45.264;5.468;2022-12-07T09:14:18;2.70;99.90
13462;DHT22;6803;45.264;5.468;2022-12-07T09:16:49;2.80;99.90
13462;DHT22;6803;45.264;5.468;2022-12-07T09:19:20;2.80;99.90
13462;DHT22;6803;45.264;5.468;2022-12-07T09:21:50;2.90;99.90
13462;DHT22;6803;45.264;5.468;2022-12-07T09:24:21;2.90;99.90
13462;DHT22;6803;45.264;5.468;2022-12-07T09:26:53;3.00;99.90
13462;DHT22;6803;45.264;5.468;2022-12-07T09:29:24;3.00;99.90
13462;DHT22;6803;45.264;5.468;2022-12-07T09:31:55;2.90;99.90
13462;DHT22;6803;45.264;5.468;2022-12-07T09:34:26;3.10;99.90
13462;DHT22;6803;45.264;5.468;2022-12-07T09:36:57;3.00;99.90
13462;DHT22;6803;45.264;5.468;2022-12-07T09:39:28;3.00;99.90
13462;DHT22;6803;45.264;5.468;2022-12-07T09:42:02;3.00;99.90
13462;DHT22;6803;45.264;5.468;2022-12-07T09:44:33;3.10;99.90
13462;DHT22;6803;45.264;5.468;2022-12-07T09:47:08;3.10;99.90
13462;DHT22;6803;45.264;5.468;2022-12-07T09:49:39;3.10;99.90
13462;DHT22;6803;45.264;5.468;2022-12-07T09:52:20;3.20;99.90
13462;DHT22;6803;45.264;5.468;2022-12-07T09:54:52;3.30;99.90
13462;DHT22;6803;45.264;5.468;2022-12-07T10:00:12;3.30;99.90
13462;DHT22;6803;45.264;5.468;2022-12-07T10:03:02;3.30;99.90
13462;DHT22;6803;45.264;5.468;2022-12-07T10:05:35;3.20;99.90
13462;DHT22;6803;45.264;5.468;2022-12-07T10:08:08;3.20;99.90
13462;DHT22;6803;45.264;5.468;2022-12-07T10:10:41;3.30;99.90
13462;DHT22;6803;45.264;5.468;2022-12-07T10:13:13;3.30;99.90
13462;DHT22;6803;45.264;5.468;2022-12-07T10:15:50;3.30;99.90
13462;DHT22;6803;45.264;5.468;2022-12-07T10:18:32;3.30;99.90
13462;DHT22;6803;45.264;5.468;2022-12-07T10:21:14;3.30;99.90
13462;DHT22;6803;45.264;5.468;2022-12-07T10:24:01;3.20;99.90
13462;DHT22;6803;45.264;5.468;2022-12-07T10:26:35;3.30;99.90
13462;DHT22;6803;45.264;5.468;2022-12-07T10:29:15;3.30;99.90
13462;DHT22;6803;45.264;5.468;2022-12-07T10:31:50;3.30;99.90
13462;DHT22;6803;45.264;5.468;2022-12-07T10:34:24;3.30;99.90
13462;DHT22;6803;45.264;5.468;2022-12-07T10:37:12;3.30;99.90
13462;DHT22;6803;45.264;5.468;2022-12-07T10:39:44;3.40;99.90
13462;DHT22;6803;45.264;5.468;2022-12-07T10:42:21;3.40;99.90
13462;DHT22;6803;45.264;5.468;2022-12-07T10:45:07;3.40;99.90
13462;DHT22;6803;45.264;5.468;2022-12-07T10:47:42;3.40;99.90
13462;DHT22;6803;45.264;5.468;2022-12-07T10:50:22;3.40;99.90
13462;DHT22;6803;45.264;5.468;2022-12-07T10:53:05;3.40;99.90
13462;DHT22;6803;45.264;5.468;2022-12-07T10:55:44;3.30;99.90
13462;DHT22;6803;45.264;5.468;2022-12-07T11:01:08;3.40;99.90
13462;DHT22;6803;45.264;5.468;2022-12-07T11:03:52;3.40;99.90
13462;DHT22;6803;45.264;5.468;2022-12-07T11:06:29;3.40;99.90
13462;DHT22;6803;45.264;5.468;2022-12-07T11:09:07;3.40;99.90
13462;DHT22;6803;45.264;5.468;2022-12-07T11:11:40;3.40;99.90
13462;DHT22;6803;45.264;5.468;2022-12-07T11:14:16;3.40;99.90
13462;DHT22;6803;45.264;5.468;2022-12-07T11:16:55;3.30;99.90
13462;DHT22;6803;45.264;5.468;2022-12-07T11:20:00;3.40;99.90
13462;DHT22;6803;45.264;5.468;2022-12-07T11:22:36;3.40;99.90
13462;DHT22;6803;45.264;5.468;2022-12-07T11:25:20;3.40;99.90
13462;DHT22;6803;45.264;5.468;2022-12-07T11:28:00;3.50;99.90
13462;DHT22;6803;45.264;5.468;2022-12-07T11:30:32;3.50;99.90
13462;DHT22;6803;45.264;5.468;2022-12-07T11:33:11;3.50;99.90
13462;DHT22;6803;45.264;5.468;2022-12-07T11:35:50;3.50;99.90
13462;DHT22;6803;45.264;5.468;2022-12-07T11:38:24;3.60;99.90
13462;DHT22;6803;45.264;5.468;2022-12-07T11:41:00;3.60;99.90
13462;DHT22;6803;45.264;5.468;2022-12-07T11:43:34;3.70;99.90
13462;DHT22;6803;45.264;5.468;2022-12-07T11:46:08;3.60;99.90
13462;DHT22;6803;45.264;5.468;2022-12-07T11:48:43;3.70;99.90
13462;DHT22;6803;45.264;5.468;2022-12-07T11:51:14;3.60;99.90
13462;DHT22;6803;45.264;5.468;2022-12-07T11:53:48;3.60;99.90
13462;DHT22;6803;45.264;5.468;2022-12-07T11:56:21;3.70;99.90
13462;DHT22;6803;45.264;5.468;2022-12-07T11:58:53;3.70;99.90
13462;DHT22;6803;45.264;5.468;2022-12-07T12:01:36;3.70;99.90
13462;DHT22;6803;45.264;5.468;2022-12-07T12:04:13;3.70;99.90
13462;DHT22;6803;45.264;5.468;2022-12-07T12:06:42;3.70;99.90
13462;DHT22;6803;45.264;5.468;2022-12-07T12:09:16;3.70;99.90
13462;DHT22;6803;45.264;5.468;2022-12-07T12:12:07;3.60;99.90
13462;DHT22;6803;45.264;5.468;2022-12-07T12:17:43;3.60;99.90
13462;DHT22;6803;45.264;5.468;2022-12-07T12:20:20;3.60;99.90
13462;DHT22;6803;45.264;5.468;2022-12-07T12:22:55;3.80;99.90
13462;DHT22;6803;45.264;5.468;2022-12-07T12:25:28;3.70;99.90
13462;DHT22;6803;45.264;5.468;2022-12-07T12:28:00;3.80;99.90
13462;DHT22;6803;45.264;5.468;2022-12-07T12:30:35;3.80;99.90
13462;DHT22;6803;45.264;5.468;2022-12-07T12:33:13;3.80;99.90
13462;DHT22;6803;45.264;5.468;2022-12-07T12:35:44;3.70;99.90
13462;DHT22;6803;45.264;5.468;2022-12-07T12:38:31;3.90;99.90
13462;DHT22;6803;45.264;5.468;2022-12-07T12:41:03;3.80;99.90
13462;DHT22;6803;45.264;5.468;2022-12-07T12:43:51;3.80;99.90
13462;DHT22;6803;45.264;5.468;2022-12-07T12:46:53;3.80;99.90
13462;DHT22;6803;45.264;5.468;2022-12-07T12:50:14;3.80;99.90
13462;DHT22;6803;45.264;5.468;2022-12-07T12:52:58;3.80;99.90
13462;DHT22;6803;45.264;5.468;2022-12-07T12:58:47;3.60;99.90
13462;DHT22;6803;45.264;5.468;2022-12-07T13:01:54;3.70;99.90
13462;DHT22;6803;45.264;5.468;2022-12-07T13:10:43;3.70;99.90
13462;DHT22;6803;45.264;5.468;2022-12-07T13:13:35;3.80;99.90
13462;DHT22;6803;45.264;5.468;2022-12-07T13:22:50;3.70;99.90
13462;DHT22;6803;45.264;5.468;2022-12-07T13:25:42;3.60;99.90
13462;DHT22;6803;45.264;5.468;2022-12-07T13:28:18;3.70;99.90
13462;DHT22;6803;45.264;5.468;2022-12-07T13:30:57;3.80;99.90
13462;DHT22;6803;45.264;5.468;2022-12-07T13:33:29;3.80;99.90
13462;DHT22;6803;45.264;5.468;2022-12-07T13:36:00;3.80;99.90
13462;DHT22;6803;45.264;5.468;2022-12-07T13:38:33;3.80;99.90
13462;DHT22;6803;45.264;5.468;2022-12-07T13:41:15;3.80;99.90
13462;DHT22;6803;45.264;5.468;2022-12-07T13:43:49;3.80;99.90
13462;DHT22;6803;45.264;5.468;2022-12-07T13:46:25;3.80;99.90
13462;DHT22;6803;45.264;5.468;2022-12-07T13:48:56;3.90;99.90
13462;DHT22;6803;45.264;5.468;2022-12-07T13:51:28;3.80;99.90
13462;DHT22;6803;45.264;5.468;2022-12-07T13:54:06;3.60;99.90
13462;DHT22;6803;45.264;5.468;2022-12-07T13:56:35;3.60;99.90
13462;DHT22;6803;45.264;5.468;2022-12-07T14:01:51;3.60;99.90
13462;DHT22;6803;45.264;5.468;2022-12-07T14:04:34;3.70;99.90
13462;DHT22;6803;45.264;5.468;2022-12-07T14:07:24;3.70;99.90
13462;DHT22;6803;45.264;5.468;2022-12-07T14:09:58;3.60;99.90
13462;DHT22;6803;45.264;5.468;2022-12-07T14:12:30;3.60;99.90
13462;DHT22;6803;45.264;5.468;2022-12-07T14:15:02;3.60;99.90
13462;DHT22;6803;45.264;5.468;2022-12-07T14:17:35;3.60;99.90
13462;DHT22;6803;45.264;5.468;2022-12-07T14:20:31;3.60;99.90
13462;DHT22;6803;45.264;5.468;2022-12-07T14:23:04;3.70;99.90
13462;DHT22;6803;45.264;5.468;2022-12-07T14:25:48;3.70;99.90
13462;DHT22;6803;45.264;5.468;2022-12-07T14:28:28;3.70;99.90
13462;DHT22;6803;45.264;5.468;2022-12-07T14:30:59;3.60;99.90
13462;DHT22;6803;45.264;5.468;2022-12-07T14:33:31;3.60;99.90
13462;DHT22;6803;45.264;5.468;2022-12-07T14:36:01;3.60;99.90
13462;DHT22;6803;45.264;5.468;2022-12-07T14:38:32;3.60;99.90
13462;DHT22;6803;45.264;5.468;2022-12-07T14:41:04;3.60;99.90
13462;DHT22;6803;45.264;5.468;2022-12-07T14:43:54;3.50;99.90
13462;DHT22;6803;45.264;5.468;2022-12-07T14:46:26;3.50;99.90
13462;DHT22;6803;45.264;5.468;2022-12-07T14:48:57;3.50;99.90
13462;DHT22;6803;45.264;5.468;2022-12-07T14:51:30;3.50;99.90
13462;DHT22;6803;45.264;5.468;2022-12-07T14:54:02;3.50;99.90
13462;DHT22;6803;45.264;5.468;2022-12-07T14:56:34;3.50;99.90
13462;DHT22;6803;45.264;5.468;2022-12-07T14:59:05;3.50;99.90
13462;DHT22;6803;45.264;5.468;2022-12-07T15:01:36;3.50;99.90
13462;DHT22;6803;45.264;5.468;2022-12-07T15:04:07;3.50;99.90
13462;DHT22;6803;45.264;5.468;2022-12-07T15:06:38;3.60;99.90
13462;DHT22;6803;45.264;5.468;2022-12-07T15:09:11;3.60;99.90
13462;DHT22;6803;45.264;5.468;2022-12-07T15:11:43;3.50;99.90
13462;DHT22;6803;45.264;5.468;2022-12-07T15:14:13;3.60;99.90
13462;DHT22;6803;45.264;5.468;2022-12-07T15:16:44;3.60;99.90
13462;DHT22;6803;45.264;5.468;2022-12-07T15:19:18;3.50;99.90
13462;DHT22;6803;45.264;5.468;2022-12-07T15:21:53;3.50;99.90
13462;DHT22;6803;45.264;5.468;2022-12-07T15:24:24;3.60;99.90
13462;DHT22;6803;45.264;5.468;2022-12-07T15:26:55;3.50;99.90
13462;DHT22;6803;45.264;5.468;2022-12-07T15:29:26;3.50;99.90
13462;DHT22;6803;45.264;5.468;2022-12-07T15:31:57;3.50;99.90
13462;DHT22;6803;45.264;5.468;2022-12-07T15:34:28;3.50;99.90
13462;DHT22;6803;45.264;5.468;2022-12-07T15:37:02;3.40;99.90
13462;DHT22;6803;45.264;5.468;2022-12-07T15:39:33;3.40;99.90
13462;DHT22;6803;45.264;5.468;2022-12-07T15:42:05;3.50;99.90
13462;DHT22;6803;45.264;5.468;2022-12-07T15:44:36;3.40;99.90
13462;DHT22;6803;45.264;5.468;2022-12-07T15:47:24;3.50;99.90
13462;DHT22;6803;45.264;5.468;2022-12-07T15:49:55;3.50;99.90
13462;DHT22;6803;45.264;5.468;2022-12-07T15:52:26;3.50;99.90
13462;DHT22;6803;45.264;5.468;2022-12-07T15:54:57;3.40;99.90
13462;DHT22;6803;45.264;5.468;2022-12-07T15:57:29;3.40;99.90
13462;DHT22;6803;45.264;5.468;2022-12-07T16:00:01;3.40;99.90
13462;DHT22;6803;45.264;5.468;2022-12-07T16:02:32;3.40;99.90
13462;DHT22;6803;45.264;5.468;2022-12-07T16:05:06;3.40;99.90
13462;DHT22;6803;45.264;5.468;2022-12-07T16:07:36;3.40;99.90
13462;DHT22;6803;45.264;5.468;2022-12-07T16:10:10;3.40;99.90
13462;DHT22;6803;45.264;5.468;2022-12-07T16:12:40;3.40;99.90
13462;DHT22;6803;45.264;5.468;2022-12-07T16:15:12;3.40;99.90
13462;DHT22;6803;45.264;5.468;2022-12-07T16:17:42;3.40;99.90
13462;DHT22;6803;45.264;5.468;2022-12-07T16:20:13;3.50;99.90
13462;DHT22;6803;45.264;5.468;2022-12-07T16:22:44;3.40;99.90
13462;DHT22;6803;45.264;5.468;2022-12-07T16:25:15;3.40;99.90
13462;DHT22;6803;45.264;5.468;2022-12-07T16:27:46;3.40;99.90
13462;DHT22;6803;45.264;5.468;2022-12-07T16:30:16;3.40;99.90
13462;DHT22;6803;45.264;5.468;2022-12-07T16:32:47;3.40;99.90
13462;DHT22;6803;45.264;5.468;2022-12-07T16:35:19;3.40;99.90
13462;DHT22;6803;45.264;5.468;2022-12-07T16:37:50;3.40;99.90
13462;DHT22;6803;45.264;5.468;2022-12-07T16:40:21;3.50;99.90
13462;DHT22;6803;45.264;5.468;2022-12-07T16:42:51;3.40;99.90
13462;DHT22;6803;45.264;5.468;2022-12-07T16:45:22;3.40;99.90
13462;DHT22;6803;45.264;5.468;2022-12-07T16:47:53;3.40;99.90
13462;DHT22;6803;45.264;5.468;2022-12-07T16:50:23;3.40;99.90
13462;DHT22;6803;45.264;5.468;2022-12-07T16:52:54;3.40;99.90
13462;DHT22;6803;45.264;5.468;2022-12-07T16:55:25;3.40;99.90
13462;DHT22;6803;45.264;5.468;2022-12-07T16:57:56;3.40;99.90
13462;DHT22;6803;45.264;5.468;2022-12-07T17:00:27;3.40;99.90
13462;DHT22;6803;45.264;5.468;2022-12-07T17:02:58;3.40;99.90
13462;DHT22;6803;45.264;5.468;2022-12-07T17:05:29;3.50;99.90
13462;DHT22;6803;45.264;5.468;2022-12-07T17:08:00;3.50;99.90
13462;DHT22;6803;45.264;5.468;2022-12-07T17:10:34;3.50;99.90
13462;DHT22;6803;45.264;5.468;2022-12-07T17:13:06;3.40;99.90
13462;DHT22;6803;45.264;5.468;2022-12-07T17:15:57;3.40;99.90
13462;DHT22;6803;45.264;5.468;2022-12-07T17:18:30;3.40;99.90
13462;DHT22;6803;45.264;5.468;2022-12-07T17:21:04;3.40;99.90
13462;DHT22;6803;45.264;5.468;2022-12-07T17:23:36;3.40;99.90
13462;DHT22;6803;45.264;5.468;2022-12-07T17:26:09;3.40;99.90